createdAt,value
2018-08-16T00:00:36.954Z,18.10
2018-08-16T00:03:40.664Z,18.00
2018-08-16T00:06:44.371Z,17.90
2018-08-16T00:09:47.995Z,17.80
2018-08-16T00:12:51.858Z,17.70
2018-08-16T00:15:55.480Z,17.60
2018-08-16T00:18:59.127Z,17.70
2018-08-16T00:22:02.757Z,17.70
2018-08-16T00:25:07.238Z,17.70
2018-08-16T00:28:10.864Z,17.70
2018-08-16T00:31:14.506Z,17.80
2018-08-16T00:34:18.149Z,17.70
2018-08-16T00:37:23.223Z,17.80
2018-08-16T00:40:26.889Z,17.70
2018-08-16T00:43:30.576Z,17.70
2018-08-16T00:46:34.195Z,17.70
2018-08-16T00:49:37.847Z,17.60
2018-08-16T00:52:41.473Z,17.60
2018-08-16T00:55:45.136Z,17.40
2018-08-16T00:58:48.827Z,17.40
2018-08-16T01:01:52.482Z,17.40
2018-08-16T01:04:56.111Z,17.40
2018-08-16T01:07:59.772Z,17.40
2018-08-16T01:11:03.404Z,17.40
2018-08-16T01:14:07.988Z,17.30
2018-08-16T01:17:11.625Z,17.30
2018-08-16T01:20:15.318Z,17.30
2018-08-16T01:23:18.893Z,17.30
2018-08-16T01:26:22.547Z,17.30
2018-08-16T01:29:26.157Z,17.30
2018-08-16T01:32:29.796Z,17.20
2018-08-16T01:35:33.428Z,17.20
2018-08-16T01:38:37.031Z,17.20
2018-08-16T01:41:40.658Z,17.20
2018-08-16T01:44:44.442Z,17.20
2018-08-16T01:47:48.049Z,17.10
2018-08-16T01:50:51.692Z,17.00
2018-08-16T01:53:55.431Z,17.00
2018-08-16T01:56:59.819Z,17.10
2018-08-16T02:00:05.419Z,17.10
2018-08-16T02:03:09.065Z,17.00
2018-08-16T02:06:12.722Z,16.90
2018-08-16T02:09:16.411Z,17.00
2018-08-16T02:12:20.097Z,16.90
2018-08-16T02:15:23.768Z,16.70
2018-08-16T02:18:27.592Z,16.60
2018-08-16T02:21:31.442Z,16.70
2018-08-16T02:24:35.048Z,16.80
2018-08-16T02:27:38.698Z,16.80
2018-08-16T02:30:42.331Z,16.80
2018-08-16T02:33:46.158Z,16.70
2018-08-16T02:36:49.561Z,16.70
2018-08-16T02:39:53.187Z,16.70
2018-08-16T02:42:56.794Z,16.80
2018-08-16T02:46:00.627Z,16.80
2018-08-16T02:49:04.452Z,16.70
2018-08-16T02:52:08.090Z,16.60
2018-08-16T02:55:11.695Z,16.70
2018-08-16T02:58:15.312Z,16.70
2018-08-16T03:01:25.517Z,16.60
2018-08-16T03:04:29.159Z,16.70
2018-08-16T03:07:32.775Z,16.70
2018-08-16T03:10:36.468Z,16.60
2018-08-16T03:13:40.082Z,16.60
2018-08-16T03:16:43.942Z,16.60
2018-08-16T03:19:47.561Z,16.60
2018-08-16T03:22:51.204Z,16.50
2018-08-16T03:25:54.830Z,16.50
2018-08-16T03:28:58.467Z,16.50
2018-08-16T03:32:02.213Z,16.50
2018-08-16T03:35:06.243Z,16.50
2018-08-16T03:38:09.845Z,16.50
2018-08-16T03:41:13.489Z,16.50
2018-08-16T03:44:17.117Z,16.40
2018-08-16T03:47:20.779Z,16.40
2018-08-16T03:50:24.388Z,16.50
2018-08-16T03:53:28.037Z,16.50
2018-08-16T03:56:31.670Z,16.50
2018-08-16T03:59:35.297Z,16.50
2018-08-16T04:02:38.969Z,16.60
2018-08-16T04:05:42.644Z,16.60
2018-08-16T04:08:46.293Z,16.60
2018-08-16T04:11:49.937Z,16.60
2018-08-16T04:14:53.702Z,16.70
2018-08-16T04:17:57.358Z,16.70
2018-08-16T04:21:01.032Z,16.80
2018-08-16T04:24:04.674Z,16.90
2018-08-16T04:27:08.309Z,17.00
2018-08-16T04:30:11.946Z,17.00
2018-08-16T04:33:16.108Z,17.10
2018-08-16T04:36:19.738Z,17.10
2018-08-16T04:39:23.345Z,17.00
2018-08-16T04:42:26.983Z,17.10
2018-08-16T04:45:30.601Z,17.20
2018-08-16T04:48:34.279Z,17.40
2018-08-16T04:51:37.863Z,17.80
2018-08-16T04:54:41.509Z,18.50
2018-08-16T04:57:45.138Z,19.10
2018-08-16T05:00:48.772Z,19.50
2018-08-16T05:03:52.398Z,20.00
2018-08-16T05:06:56.042Z,20.40
2018-08-16T05:09:59.731Z,20.60
2018-08-16T05:13:03.350Z,20.90
2018-08-16T05:16:06.952Z,21.20
2018-08-16T05:19:10.680Z,21.40
2018-08-16T05:22:14.319Z,21.80
2018-08-16T05:25:18.012Z,22.10
2018-08-16T05:28:21.609Z,21.90
2018-08-16T05:31:25.253Z,21.80
2018-08-16T05:34:29.718Z,22.10
2018-08-16T05:37:33.350Z,22.10
2018-08-16T05:40:36.968Z,22.20
2018-08-16T05:43:40.703Z,22.60
2018-08-16T05:46:44.322Z,22.90
2018-08-16T05:49:47.956Z,23.30
2018-08-16T05:52:51.563Z,23.90
2018-08-16T05:55:55.267Z,24.60
2018-08-16T05:58:58.964Z,24.70
2018-08-16T06:02:02.684Z,24.90
2018-08-16T06:05:06.874Z,25.20
2018-08-16T06:08:10.537Z,25.30
2018-08-16T06:11:14.255Z,25.30
2018-08-16T06:14:17.893Z,25.70
2018-08-16T06:17:21.550Z,25.30
2018-08-16T06:20:25.188Z,24.70
2018-08-16T06:23:28.796Z,24.20
2018-08-16T06:26:32.437Z,24.90
2018-08-16T06:29:36.054Z,25.70
2018-08-16T06:32:39.709Z,25.90
2018-08-16T06:35:43.333Z,25.40
2018-08-16T06:38:47.058Z,25.50
2018-08-16T06:41:50.652Z,25.80
2018-08-16T06:44:54.274Z,26.00
2018-08-16T06:47:58.104Z,26.30
2018-08-16T06:51:01.730Z,26.60
2018-08-16T06:54:05.454Z,27.00
2018-08-16T06:57:09.168Z,27.20
2018-08-16T07:00:13.172Z,27.00
2018-08-16T07:03:16.810Z,27.40
2018-08-16T07:06:20.410Z,27.10
2018-08-16T07:09:24.132Z,26.90
2018-08-16T07:12:28.000Z,27.10
2018-08-16T07:15:31.555Z,26.70
2018-08-16T07:18:35.240Z,27.00
2018-08-16T07:21:38.852Z,27.40
2018-08-16T07:24:42.583Z,27.60
2018-08-16T07:27:46.177Z,27.50
2018-08-16T07:30:49.786Z,27.50
2018-08-16T07:33:53.447Z,27.40
2018-08-16T07:36:57.065Z,27.50
2018-08-16T07:40:00.693Z,27.10
2018-08-16T07:43:04.359Z,27.10
2018-08-16T07:46:08.072Z,27.20
2018-08-16T07:49:11.587Z,27.90
2018-08-16T07:52:15.187Z,28.10
2018-08-16T07:55:18.821Z,28.20
2018-08-16T07:58:22.664Z,28.10
2018-08-16T08:01:26.213Z,27.80
2018-08-16T08:04:29.814Z,28.40
2018-08-16T08:07:33.460Z,28.30
2018-08-16T08:10:37.072Z,27.40
2018-08-16T08:13:40.714Z,27.80
2018-08-16T08:16:44.307Z,28.50
2018-08-16T08:19:47.946Z,28.40
2018-08-16T08:22:51.557Z,28.10
2018-08-16T08:25:55.178Z,28.20
2018-08-16T08:28:58.864Z,28.30
2018-08-16T08:32:02.482Z,28.50
2018-08-16T08:35:06.446Z,28.20
2018-08-16T08:38:14.313Z,28.50
2018-08-16T08:41:18.134Z,28.60
2018-08-16T08:44:23.126Z,28.70
2018-08-16T08:47:31.082Z,28.90
2018-08-16T08:50:34.693Z,28.10
2018-08-16T08:57:15.436Z,27.70
2018-08-16T09:00:21.080Z,28.30
2018-08-16T09:03:24.752Z,28.30
2018-08-16T09:06:28.502Z,28.40
2018-08-16T09:09:32.112Z,28.60
2018-08-16T09:12:47.222Z,28.10
2018-08-16T09:15:51.048Z,28.60
2018-08-16T09:18:54.928Z,28.60
2018-08-16T09:21:58.537Z,28.60
2018-08-16T09:25:02.146Z,28.50
2018-08-16T09:28:06.223Z,28.30
2018-08-16T09:31:22.066Z,28.50
2018-08-16T09:34:26.487Z,28.20
2018-08-16T09:37:35.657Z,28.20
2018-08-16T09:40:39.315Z,28.10
2018-08-16T09:43:42.919Z,28.10
2018-08-16T09:47:02.012Z,28.00
2018-08-16T09:50:05.677Z,28.10
2018-08-16T09:53:09.301Z,28.00
2018-08-16T09:56:12.967Z,28.20
2018-08-16T09:59:16.895Z,28.00
2018-08-16T10:02:20.502Z,27.70
2018-08-16T10:05:24.121Z,27.90
2018-08-16T10:08:27.778Z,28.20
2018-08-16T10:11:31.479Z,28.00
2018-08-16T10:14:35.114Z,28.00
2018-08-16T10:17:38.718Z,28.20
2018-08-16T10:20:42.351Z,28.10
2018-08-16T10:23:46.200Z,28.20
2018-08-16T10:26:49.897Z,28.40
2018-08-16T10:29:53.495Z,27.80
2018-08-16T10:32:57.125Z,27.80
2018-08-16T10:36:00.717Z,28.00
2018-08-16T10:39:07.209Z,27.90
2018-08-16T10:42:10.855Z,28.10
2018-08-16T10:45:14.463Z,28.30
2018-08-16T10:48:18.169Z,28.40
2018-08-16T10:51:21.793Z,28.30
2018-08-16T10:54:25.410Z,27.90
2018-08-16T10:57:29.063Z,27.90
2018-08-16T11:00:32.697Z,28.10
2018-08-16T11:03:36.449Z,28.70
2018-08-16T11:06:40.073Z,28.80
2018-08-16T11:09:43.689Z,28.60
2018-08-16T11:12:47.684Z,28.40
2018-08-16T11:15:51.308Z,28.50
2018-08-16T11:18:54.980Z,28.30
2018-08-16T11:21:58.571Z,28.20
2018-08-16T11:25:02.184Z,27.70
2018-08-16T11:28:06.544Z,27.90
2018-08-16T11:31:10.164Z,27.90
2018-08-16T11:34:13.819Z,27.80
2018-08-16T11:37:17.651Z,27.30
2018-08-16T11:40:21.291Z,27.20
2018-08-16T11:43:24.930Z,27.30
2018-08-16T11:46:28.622Z,27.50
2018-08-16T11:49:32.203Z,27.80
2018-08-16T11:52:35.901Z,27.70
2018-08-16T11:55:39.522Z,27.60
2018-08-16T11:58:43.150Z,27.60
2018-08-16T12:01:46.779Z,27.50
2018-08-16T12:04:50.436Z,27.70
2018-08-16T12:07:54.033Z,27.50
2018-08-16T12:10:57.658Z,27.80
2018-08-16T12:14:01.278Z,27.90
2018-08-16T12:17:04.906Z,28.20
2018-08-16T12:20:09.008Z,28.50
2018-08-16T12:23:12.636Z,28.40
2018-08-16T12:26:16.238Z,28.00
2018-08-16T12:29:19.859Z,27.80
2018-08-16T12:32:23.485Z,27.80
2018-08-16T12:35:27.119Z,27.80
2018-08-16T12:38:30.775Z,27.80
2018-08-16T12:41:34.443Z,27.80
2018-08-16T12:44:38.484Z,27.80
2018-08-16T12:47:42.194Z,27.80
2018-08-16T12:50:45.731Z,28.00
2018-08-16T12:53:50.058Z,28.40
2018-08-16T12:56:53.661Z,28.70
2018-08-16T12:59:57.287Z,28.80
2018-08-16T13:03:00.881Z,28.60
2018-08-16T13:06:04.577Z,28.40
2018-08-16T13:09:09.046Z,28.50
2018-08-16T13:12:12.666Z,28.50
2018-08-16T13:15:16.298Z,28.70
2018-08-16T13:18:19.919Z,28.90
2018-08-16T13:21:23.514Z,29.00
2018-08-16T13:24:27.144Z,28.90
2018-08-16T13:27:30.818Z,28.50
2018-08-16T13:30:34.418Z,28.40
2018-08-16T13:33:38.034Z,28.30
2018-08-16T13:36:41.692Z,28.30
2018-08-16T13:39:45.386Z,28.40
2018-08-16T13:42:49.037Z,28.50
2018-08-16T13:45:52.664Z,28.70
2018-08-16T13:48:56.321Z,28.90
2018-08-16T13:51:59.936Z,28.90
2018-08-16T13:55:03.598Z,28.90
2018-08-16T13:58:07.180Z,28.80
2018-08-16T14:01:10.858Z,28.90
2018-08-16T14:04:14.492Z,28.90
2018-08-16T14:07:18.119Z,29.00
2018-08-16T14:10:21.726Z,29.00
2018-08-16T14:13:25.356Z,28.80
2018-08-16T14:16:29.008Z,28.80
2018-08-16T14:19:32.634Z,28.70
2018-08-16T14:22:36.275Z,28.60
2018-08-16T14:25:39.951Z,28.60
2018-08-16T14:28:43.794Z,28.70
2018-08-16T14:31:47.605Z,28.60
2018-08-16T14:34:51.217Z,28.70
2018-08-16T14:37:54.924Z,28.80
2018-08-16T14:40:58.554Z,28.80
2018-08-16T14:44:02.203Z,28.80
2018-08-16T14:47:06.003Z,28.70
2018-08-16T14:50:09.668Z,28.60
2018-08-16T14:53:13.302Z,28.40
2018-08-16T14:56:16.932Z,28.60
2018-08-16T14:59:20.604Z,28.70
2018-08-16T15:02:24.339Z,28.70
2018-08-16T15:05:27.957Z,28.70
2018-08-16T15:08:31.592Z,28.70
2018-08-16T15:11:35.199Z,28.60
2018-08-16T15:14:38.856Z,28.60
2018-08-16T15:17:42.633Z,28.60
2018-08-16T15:20:46.455Z,28.70
2018-08-16T15:23:50.071Z,28.70
2018-08-16T15:26:54.546Z,28.70
2018-08-16T15:29:58.160Z,28.70
2018-08-16T15:33:01.855Z,28.80
2018-08-16T15:36:05.563Z,28.80
2018-08-16T15:39:09.841Z,28.80
2018-08-16T15:42:13.480Z,28.80
2018-08-16T15:45:17.204Z,28.70
2018-08-16T15:48:20.851Z,28.60
2018-08-16T15:51:24.622Z,28.60
2018-08-16T15:54:28.226Z,28.60
2018-08-16T15:57:31.881Z,28.70
2018-08-16T16:00:35.501Z,28.70
2018-08-16T16:03:39.468Z,28.70
2018-08-16T16:06:43.075Z,28.80
2018-08-16T16:09:46.751Z,28.70
2018-08-16T16:12:50.396Z,28.70
2018-08-16T16:15:54.147Z,28.70
2018-08-16T16:18:57.860Z,28.60
2018-08-16T16:22:01.547Z,28.60
2018-08-16T16:25:05.654Z,28.50
2018-08-16T16:28:09.316Z,28.40
2018-08-16T16:31:12.910Z,28.30
2018-08-16T16:34:16.581Z,28.30
2018-08-16T16:37:20.166Z,28.30
2018-08-16T16:40:23.807Z,28.20
2018-08-16T16:43:27.634Z,28.20
2018-08-16T16:46:31.325Z,28.20
2018-08-16T16:49:34.985Z,28.20
2018-08-16T16:52:38.584Z,28.20
2018-08-16T16:55:42.197Z,28.10
2018-08-16T16:58:45.842Z,28.10
2018-08-16T17:01:49.472Z,28.00
2018-08-16T17:04:53.116Z,28.00
2018-08-16T17:07:56.728Z,27.90
2018-08-16T17:11:00.377Z,27.90
2018-08-16T17:14:04.025Z,27.80
2018-08-16T17:17:07.724Z,27.80
2018-08-16T17:20:11.975Z,27.70
2018-08-16T17:23:15.616Z,27.70
2018-08-16T17:26:19.245Z,27.70
2018-08-16T17:29:22.859Z,27.60
2018-08-16T17:32:26.476Z,27.60
2018-08-16T17:35:30.136Z,27.50
2018-08-16T17:38:33.748Z,27.40
2018-08-16T17:41:37.397Z,27.40
2018-08-16T17:44:41.101Z,27.30
2018-08-16T17:47:44.748Z,27.20
2018-08-16T17:50:48.383Z,27.10
2018-08-16T17:53:51.983Z,27.00
2018-08-16T17:56:55.618Z,26.90
2018-08-16T17:59:59.273Z,26.90
2018-08-16T18:03:02.908Z,26.80
2018-08-16T18:06:06.511Z,26.70
2018-08-16T18:09:10.136Z,26.60
2018-08-16T18:12:13.801Z,26.50
2018-08-16T18:15:17.461Z,26.50
2018-08-16T18:18:21.108Z,26.40
2018-08-16T18:21:24.766Z,26.40
2018-08-16T18:24:28.391Z,26.20
2018-08-16T18:27:31.995Z,26.10
2018-08-16T18:30:35.590Z,26.00
2018-08-16T18:33:39.233Z,26.00
2018-08-16T18:36:42.871Z,25.90
2018-08-16T18:39:46.951Z,25.80
2018-08-16T18:42:50.584Z,25.70
2018-08-16T18:45:54.428Z,25.50
2018-08-16T18:48:58.059Z,25.40
2018-08-16T18:52:01.722Z,25.40
2018-08-16T18:55:06.406Z,25.30
2018-08-16T18:58:10.023Z,25.20
2018-08-16T19:01:13.643Z,25.00
2018-08-16T19:04:17.268Z,24.90
2018-08-16T19:07:20.991Z,24.90
2018-08-16T19:10:24.555Z,25.00
2018-08-16T19:13:28.184Z,24.90
2018-08-16T19:16:31.839Z,24.90
2018-08-16T19:19:35.480Z,24.90
2018-08-16T19:22:39.098Z,24.80
2018-08-16T19:25:42.733Z,24.80
2018-08-16T19:28:46.357Z,24.70
2018-08-16T19:31:49.966Z,24.60
2018-08-16T19:34:53.632Z,24.40
2018-08-16T19:37:57.260Z,24.30
2018-08-16T19:41:00.853Z,24.30
2018-08-16T19:44:04.525Z,24.10
2018-08-16T19:47:08.168Z,24.10
2018-08-16T19:50:12.182Z,24.00
2018-08-16T19:53:15.800Z,24.00
2018-08-16T19:56:19.450Z,23.90
2018-08-16T19:59:23.076Z,23.90
2018-08-16T20:02:26.699Z,23.80
2018-08-16T20:05:30.345Z,23.80
2018-08-16T20:08:33.976Z,23.90
2018-08-16T20:11:37.702Z,23.80
2018-08-16T20:14:41.316Z,23.70
2018-08-16T20:17:44.976Z,23.60
2018-08-16T20:20:48.608Z,23.50
2018-08-16T20:23:52.230Z,23.40
2018-08-16T20:26:55.876Z,23.30
2018-08-16T20:29:59.502Z,23.30
2018-08-16T20:33:03.093Z,23.20
2018-08-16T20:36:06.771Z,23.20
2018-08-16T20:39:10.407Z,23.20
2018-08-16T20:42:14.059Z,23.20
2018-08-16T20:45:17.699Z,23.10
2018-08-16T20:48:21.375Z,23.10
2018-08-16T20:51:25.002Z,23.20
2018-08-16T20:54:28.626Z,23.20
2018-08-16T20:57:32.259Z,23.10
2018-08-16T21:00:36.210Z,23.00
2018-08-16T21:03:39.822Z,23.00
2018-08-16T21:06:43.427Z,22.90
2018-08-16T21:09:47.053Z,22.80
2018-08-16T21:12:50.694Z,22.70
2018-08-16T21:15:54.323Z,22.70
2018-08-16T21:18:58.100Z,22.60
2018-08-16T21:22:01.732Z,22.50
2018-08-16T21:25:06.171Z,22.50
2018-08-16T21:28:09.923Z,22.40
2018-08-16T21:31:13.561Z,22.40
2018-08-16T21:34:17.295Z,22.30
2018-08-16T21:37:20.905Z,22.30
2018-08-16T21:40:24.537Z,22.20
2018-08-16T21:43:28.170Z,22.30
2018-08-16T21:46:31.792Z,22.20
2018-08-16T21:49:35.423Z,22.20
2018-08-16T21:52:39.043Z,22.20
2018-08-16T21:55:42.673Z,22.20
2018-08-16T21:58:46.288Z,22.10
2018-08-16T22:01:49.911Z,22.20
2018-08-16T22:04:53.515Z,22.10
2018-08-16T22:08:03.977Z,22.00
2018-08-16T22:11:07.819Z,22.00
2018-08-16T22:14:11.433Z,21.90
2018-08-16T22:17:15.051Z,22.00
2018-08-16T22:20:18.662Z,21.90
2018-08-16T22:23:22.303Z,21.90
2018-08-16T22:26:25.918Z,21.80
2018-08-16T22:29:30.462Z,21.80
2018-08-16T22:32:34.091Z,21.80
2018-08-16T22:35:37.797Z,21.70
2018-08-16T22:38:41.392Z,21.70
2018-08-16T22:41:45.023Z,21.70
2018-08-16T22:44:48.636Z,21.60
2018-08-16T22:47:52.238Z,21.50
2018-08-16T22:50:55.848Z,21.50
2018-08-16T22:53:59.462Z,21.40
2018-08-16T22:57:03.066Z,21.40
2018-08-16T23:00:07.474Z,21.30
2018-08-16T23:03:11.084Z,21.20
2018-08-16T23:06:14.739Z,21.30
2018-08-16T23:09:18.363Z,21.40
2018-08-16T23:12:21.966Z,21.20
2018-08-16T23:15:25.596Z,21.20
2018-08-16T23:18:29.391Z,21.10
2018-08-16T23:21:33.008Z,21.10
2018-08-16T23:24:36.598Z,21.10
2018-08-16T23:27:40.223Z,21.10
2018-08-16T23:30:43.843Z,21.10
2018-08-16T23:33:47.509Z,21.10
2018-08-16T23:36:51.137Z,21.10
2018-08-16T23:39:54.768Z,21.10
2018-08-16T23:42:58.386Z,21.00
2018-08-16T23:46:01.987Z,21.00
2018-08-16T23:49:05.601Z,21.10
2018-08-16T23:52:09.207Z,21.00
2018-08-16T23:55:12.834Z,21.00
2018-08-16T23:58:16.449Z,21.00
